Time,TemperatureF,DewpointF,PressureIn,WindDirection,WindDirectionDegrees,WindSpeedMPH,WindSpeedGustMPH,Humidity,HourlyPrecipIn,Conditions,Clouds,dailyrainin,SoftwareType,DateUTC
2013-03-31 00:04:00,31.8,28.4,29.87,West,270,4.2,5.8,87,0.00,CLR,CLR,0.00,WeatherDisplay:10.37,2013-03-31 05:04:00,
2013-03-31 00:09:00,31.8,28.4,29.86,West,270,5.6,7.8,87,0.00,CLR,CLR,0.00,WeatherDisplay:10.37,2013-03-31 05:09:00,
2013-03-31 00:14:00,32.2,28.7,29.86,West,270,7.2,13.9,87,0.00,CLR,CLR,0.00,WeatherDisplay:10.37,2013-03-31 05:14:00,
2013-03-31 00:19:00,32.2,28.7,29.87,NW,315,3.0,9.2,87,0.00,CLR,CLR,0.00,WeatherDisplay:10.37,2013-03-31 05:19:00,
2013-03-31 00:24:00,32.4,28.9,29.86,West,270,4.1,6.9,87,0.00,CLR,CLR,0.00,WeatherDisplay:10.37,2013-03-31 05:24:00,
2013-03-31 00:29:00,32.2,28.7,29.86,West,270,4.0,6.3,87,0.00,CLR,CLR,0.00,WeatherDisplay:10.37,2013-03-31 05:29:00,
2013-03-31 00:34:00,32.4,28.9,29.86,WNW,292,4.8,4.8,87,0.00,CLR,CLR,0.00,WeatherDisplay:10.37,2013-03-31 05:34:00,
2013-03-31 00:39:00,32.2,28.7,29.86,WSW,248,7.9,10.5,87,0.00,CLR,CLR,0.00,WeatherDisplay:10.37,2013-03-31 05:39:00,
2013-03-31 00:44:00,32.2,28.7,29.87,NW,315,5.0,6.9,87,0.00,CLR,CLR,0.00,WeatherDisplay:10.37,2013-03-31 05:44:00,
2013-03-31 00:49:00,32.2,28.7,29.87,West,270,6.7,11.5,87,0.00,CLR,CLR,0.00,WeatherDisplay:10.37,2013-03-31 05:49:00,
2013-03-31 00:55:00,32.2,28.7,29.85,West,270,5.8,13.8,87,0.00,CLR,CLR,0.00,WeatherDisplay:10.37,2013-03-31 05:55:00,
2013-03-31 01:00:00,32.2,28.7,29.85,West,270,4.1,7.8,87,0.00,CLR,CLR,0.00,WeatherDisplay:10.37,2013-03-31 06:00:00,
2013-03-31 01:05:00,32.2,28.7,29.85,WNW,292,6.6,8.1,87,0.00,CLR,CLR,0.00,WeatherDisplay:10.37,2013-03-31 06:05:00,
2013-03-31 01:10:00,32.2,28.7,29.85,WNW,292,6.4,10.4,87,0.00,CLR,CLR,0.00,WeatherDisplay:10.37,2013-03-31 06:10:00,
2013-03-31 01:15:00,32.2,28.7,29.85,West,270,5.6,9.2,87,0.00,CLR,CLR,0.00,WeatherDisplay:10.37,2013-03-31 06:15:00,
2013-03-31 01:20:00,32.2,28.7,29.84,West,270,4.7,6.9,87,0.00,CLR,CLR,0.00,WeatherDisplay:10.37,2013-03-31 06:20:00,
2013-03-31 01:25:00,32.2,28.7,29.84,WSW,248,6.0,9.2,87,0.00,CLR,CLR,0.00,WeatherDisplay:10.37,2013-03-31 06:25:00,
2013-03-31 01:30:00,32.2,28.7,29.85,West,270,4.7,6.9,87,0.00,CLR,CLR,0.00,WeatherDisplay:10.37,2013-03-31 06:30:00,
2013-03-31 01:36:00,32.0,28.6,29.85,WNW,292,4.9,9.2,87,0.00,CLR,CLR,0.00,WeatherDisplay:10.37,2013-03-31 06:36:00,
2013-03-31 01:42:00,32.0,28.6,29.85,WNW,292,6.5,10.4,87,0.00,CLR,CLR,0.00,WeatherDisplay:10.37,2013-03-31 06:42:00,
2013-03-31 01:47:00,32.2,28.7,29.85,West,270,5.2,6.9,87,0.00,CLR,CLR,0.00,WeatherDisplay:10.37,2013-03-31 06:47:00,
2013-03-31 01:52:00,32.2,28.7,29.84,West,270,2.0,3.5,87,0.00,CLR,CLR,0.00,WeatherDisplay:10.37,2013-03-31 06:52:00,
2013-03-31 01:57:00,32.2,28.7,29.83,West,270,0.8,2.3,87,0.00,CLR,CLR,0.00,WeatherDisplay:10.37,2013-03-31 06:57:00,
2013-03-31 02:02:00,32.2,28.7,29.83,West,270,0.4,2.3,87,0.00,CLR,CLR,0.00,WeatherDisplay:10.37,2013-03-31 07:02:00,
2013-03-31 02:08:00,32.2,28.5,29.83,West,270,1.7,4.6,86,0.00,CLR,CLR,0.00,WeatherDisplay:10.37,2013-03-31 07:08:00,
2013-03-31 02:13:00,32.0,28.3,29.83,West,270,2.0,4.6,86,0.00,CLR,CLR,0.00,WeatherDisplay:10.37,2013-03-31 07:13:00,
2013-03-31 02:18:00,31.8,28.4,29.84,West,270,3.8,7.4,87,0.00,CLR,CLR,0.00,WeatherDisplay:10.37,2013-03-31 07:18:00,
2013-03-31 02:23:00,31.6,28.2,29.84,WNW,292,2.5,3.5,87,0.00,CLR,CLR,0.00,WeatherDisplay:10.37,2013-03-31 07:23:00,
2013-03-31 02:28:00,31.6,28.5,29.84,West,270,3.8,5.4,88,0.00,CLR,CLR,0.00,WeatherDisplay:10.37,2013-03-31 07:28:00,
2013-03-31 02:33:00,31.6,28.5,29.84,West,270,7.2,11.5,88,0.00,CLR,CLR,0.00,WeatherDisplay:10.37,2013-03-31 07:33:00,
2013-03-31 02:38:00,31.6,28.5,29.84,West,270,5.9,9.2,88,0.00,CLR,CLR,0.00,WeatherDisplay:10.37,2013-03-31 07:38:00,
2013-03-31 02:44:00,31.6,28.5,29.84,West,270,8.0,9.2,88,0.00,CLR,CLR,0.00,WeatherDisplay:10.37,2013-03-31 07:44:00,
2013-03-31 02:49:00,31.8,28.7,29.84,SSW,202,6.6,17.3,88,0.00,CLR,CLR,0.00,WeatherDisplay:10.37,2013-03-31 07:49:00,
2013-03-31 02:54:00,31.6,28.5,29.84,SSW,202,11.1,11.5,88,0.00,CLR,CLR,0.00,WeatherDisplay:10.37,2013-03-31 07:54:00,
2013-03-31 02:59:00,31.6,28.5,29.83,WSW,248,5.7,8.1,88,0.00,CLR,CLR,0.00,WeatherDisplay:10.37,2013-03-31 07:59:00,
2013-03-31 03:04:00,31.6,28.8,29.83,WSW,248,8.2,9.2,89,0.00,CLR,CLR,0.00,WeatherDisplay:10.37,2013-03-31 08:04:00,
2013-03-31 03:09:00,31.6,28.8,29.83,West,270,8.3,10.4,89,0.00,CLR,CLR,0.00,WeatherDisplay:10.37,2013-03-31 08:09:00,
2013-03-31 03:14:00,31.6,28.8,29.83,WSW,248,6.4,9.2,89,0.00,CLR,CLR,0.00,WeatherDisplay:10.37,2013-03-31 08:14:00,
2013-03-31 03:20:00,31.6,28.8,29.83,WNW,292,4.7,10.4,89,0.00,CLR,CLR,0.00,WeatherDisplay:10.37,2013-03-31 08:20:00,
2013-03-31 03:25:00,31.6,28.8,29.82,WSW,248,5.2,6.9,89,0.00,CLR,CLR,0.00,WeatherDisplay:10.37,2013-03-31 08:25:00,
2013-03-31 03:30:00,31.6,28.8,29.82,WSW,248,7.1,11.6,89,0.00,CLR,CLR,0.00,WeatherDisplay:10.37,2013-03-31 08:30:00,
2013-03-31 03:35:00,31.6,28.8,29.82,WNW,292,8.3,11.5,89,0.00,CLR,CLR,0.00,WeatherDisplay:10.37,2013-03-31 08:35:00,
2013-03-31 03:40:00,31.6,28.8,29.82,West,270,6.9,11.5,89,0.00,CLR,CLR,0.00,WeatherDisplay:10.37,2013-03-31 08:40:00,
2013-03-31 03:46:00,31.3,28.4,29.82,West,270,5.1,9.2,89,0.00,CLR,CLR,0.00,WeatherDisplay:10.37,2013-03-31 08:46:00,
2013-03-31 03:51:00,31.5,28.6,29.82,West,270,4.7,8.1,89,0.00,CLR,CLR,0.00,WeatherDisplay:10.37,2013-03-31 08:51:00,
2013-03-31 03:56:00,31.6,28.8,29.82,West,270,5.5,10.4,89,0.00,CLR,CLR,0.00,WeatherDisplay:10.37,2013-03-31 08:56:00,
2013-03-31 04:01:00,31.6,28.8,29.82,WSW,248,9.3,11.5,89,0.00,CLR,CLR,0.00,WeatherDisplay:10.37,2013-03-31 09:01:00,
2013-03-31 04:06:00,31.8,28.9,29.81,WSW,248,7.7,11.5,89,0.00,CLR,CLR,0.00,WeatherDisplay:10.37,2013-03-31 09:06:00,
2013-03-31 04:12:00,31.8,28.9,29.81,West,270,5.6,8.1,89,0.00,CLR,CLR,0.00,WeatherDisplay:10.37,2013-03-31 09:12:00,
2013-03-31 04:17:00,32.2,29.3,29.81,WNW,292,9.2,10.4,89,0.00,CLR,CLR,0.00,WeatherDisplay:10.37,2013-03-31 09:17:00,
2013-03-31 04:22:00,32.2,29.3,29.81,West,270,8.3,10.4,89,0.00,CLR,CLR,0.00,WeatherDisplay:10.37,2013-03-31 09:22:00,
2013-03-31 04:28:00,32.2,29.3,29.80,WNW,292,9.4,13.8,89,0.00,CLR,CLR,0.00,WeatherDisplay:10.37,2013-03-31 09:28:00,
2013-03-31 04:33:00,32.2,29.0,29.80,WSW,248,7.5,9.2,88,0.00,CLR,CLR,0.00,WeatherDisplay:10.37,2013-03-31 09:33:00,
2013-03-31 04:38:00,32.0,28.8,29.80,WNW,292,7.3,12.7,88,0.00,CLR,CLR,0.00,WeatherDisplay:10.37,2013-03-31 09:38:00,
2013-03-31 04:43:00,32.2,29.0,29.80,WSW,248,8.2,16.1,88,0.00,CLR,CLR,0.00,WeatherDisplay:10.37,2013-03-31 09:43:00,
2013-03-31 04:48:00,31.8,28.7,29.80,West,270,8.1,17.3,88,0.00,CLR,CLR,0.00,WeatherDisplay:10.37,2013-03-31 09:48:00,
2013-03-31 04:53:00,31.8,28.7,29.79,WSW,248,9.6,11.5,88,0.00,CLR,CLR,0.00,WeatherDisplay:10.37,2013-03-31 09:53:00,
2013-03-31 04:58:00,31.8,28.7,29.79,WSW,248,6.5,13.8,88,0.00,CLR,CLR,0.00,WeatherDisplay:10.37,2013-03-31 09:58:00,
2013-03-31 05:03:00,31.8,28.7,29.79,WNW,292,6.8,10.4,88,0.00,CLR,CLR,0.00,WeatherDisplay:10.37,2013-03-31 10:03:00,
2013-03-31 05:09:00,31.8,28.7,29.79,West,270,6.0,10.4,88,0.00,CLR,CLR,0.00,WeatherDisplay:10.37,2013-03-31 10:09:00,
2013-03-31 05:14:00,31.8,28.4,29.79,West,270,3.8,8.1,87,0.00,CLR,CLR,0.00,WeatherDisplay:10.37,2013-03-31 10:14:00,
2013-03-31 05:19:00,31.8,28.4,29.79,WNW,292,5.7,6.9,87,0.00,CLR,CLR,0.00,WeatherDisplay:10.37,2013-03-31 10:19:00,
2013-03-31 05:24:00,31.6,28.2,29.78,West,270,8.1,8.1,87,0.00,CLR,CLR,0.00,WeatherDisplay:10.37,2013-03-31 10:24:00,
2013-03-31 05:29:00,31.6,28.2,29.79,WSW,248,4.2,10.7,87,0.00,CLR,CLR,0.00,WeatherDisplay:10.37,2013-03-31 10:29:00,
2013-03-31 05:34:00,31.8,28.7,29.79,West,270,6.4,12.7,88,0.00,CLR,CLR,0.00,WeatherDisplay:10.37,2013-03-31 10:34:00,
2013-03-31 05:40:00,32.0,28.6,29.79,West,270,7.0,7.0,87,0.00,CLR,CLR,0.00,WeatherDisplay:10.37,2013-03-31 10:40:00,
2013-03-31 05:45:00,32.4,28.9,29.79,WSW,248,7.8,13.8,87,0.00,CLR,CLR,0.00,WeatherDisplay:10.37,2013-03-31 10:45:00,
2013-03-31 05:50:00,32.5,29.1,29.79,WSW,248,8.0,18.4,87,0.00,CLR,CLR,0.00,WeatherDisplay:10.37,2013-03-31 10:50:00,
2013-03-31 05:55:00,32.5,29.1,29.79,West,270,6.4,9.2,87,0.00,CLR,CLR,0.00,WeatherDisplay:10.37,2013-03-31 10:55:00,
2013-03-31 06:00:00,32.7,29.3,29.79,WSW,248,5.4,11.5,87,0.00,CLR,CLR,0.00,WeatherDisplay:10.37,2013-03-31 11:00:00,
2013-03-31 06:05:00,32.9,29.5,29.79,WNW,292,7.7,10.4,87,0.00,CLR,CLR,0.00,WeatherDisplay:10.37,2013-03-31 11:05:00,
2013-03-31 06:10:00,32.9,29.2,29.79,WSW,248,7.9,7.9,86,0.00,CLR,CLR,0.00,WeatherDisplay:10.37,2013-03-31 11:10:00,
2013-03-31 06:15:00,33.1,29.3,29.78,West,270,12.1,17.3,86,0.00,CLR,CLR,0.00,WeatherDisplay:10.37,2013-03-31 11:15:00,
2013-03-31 06:20:00,33.1,29.3,29.78,West,270,9.5,10.4,86,0.00,CLR,CLR,0.00,WeatherDisplay:10.37,2013-03-31 11:20:00,
2013-03-31 06:25:00,33.1,29.3,29.78,West,270,4.2,6.9,86,0.00,CLR,CLR,0.00,WeatherDisplay:10.37,2013-03-31 11:25:00,
2013-03-31 06:31:00,33.3,29.5,29.78,WSW,248,7.9,10.9,86,0.00,CLR,CLR,0.00,WeatherDisplay:10.37,2013-03-31 11:31:00,
2013-03-31 06:36:00,33.4,29.7,29.78,WSW,248,11.0,13.8,86,0.00,CLR,CLR,0.00,WeatherDisplay:10.37,2013-03-31 11:36:00,
2013-03-31 06:42:00,33.4,29.4,29.78,West,270,10.0,21.9,85,0.00,CLR,CLR,0.00,WeatherDisplay:10.37,2013-03-31 11:42:00,
2013-03-31 06:47:00,33.6,29.6,29.79,WNW,292,12.0,17.3,85,0.00,CLR,CLR,0.00,WeatherDisplay:10.37,2013-03-31 11:47:00,
2013-03-31 06:52:00,33.6,29.3,29.79,West,270,9.7,13.8,84,0.00,CLR,CLR,0.00,WeatherDisplay:10.37,2013-03-31 11:52:00,
2013-03-31 06:57:00,33.6,29.3,29.79,WNW,292,12.2,16.1,84,0.00,CLR,CLR,0.00,WeatherDisplay:10.37,2013-03-31 11:57:00,
2013-03-31 07:03:00,33.6,29.3,29.79,WNW,292,8.8,10.4,84,0.00,CLR,CLR,0.00,WeatherDisplay:10.37,2013-03-31 12:03:00,
2013-03-31 07:08:00,33.6,29.3,29.79,NW,315,11.3,11.5,84,0.00,CLR,CLR,0.00,WeatherDisplay:10.37,2013-03-31 12:08:00,
2013-03-31 07:13:00,33.6,29.3,29.79,West,270,13.8,13.8,84,0.00,CLR,CLR,0.00,WeatherDisplay:10.37,2013-03-31 12:13:00,
2013-03-31 07:18:00,33.6,29.3,29.80,WNW,292,7.9,13.8,84,0.00,CLR,CLR,0.00,WeatherDisplay:10.37,2013-03-31 12:18:00,
2013-03-31 07:23:00,33.6,29.3,29.79,West,270,10.8,13.8,84,0.00,CLR,CLR,0.00,WeatherDisplay:10.37,2013-03-31 12:23:00,
2013-03-31 07:29:00,33.6,29.3,29.79,WNW,292,11.0,12.7,84,0.00,CLR,CLR,0.00,WeatherDisplay:10.37,2013-03-31 12:29:00,
2013-03-31 07:34:00,33.8,29.2,29.79,NW,315,13.0,13.8,83,0.00,CLR,CLR,0.00,WeatherDisplay:10.37,2013-03-31 12:34:00,
2013-03-31 07:39:00,33.8,29.2,29.79,WNW,292,8.3,12.7,83,0.00,CLR,CLR,0.00,WeatherDisplay:10.37,2013-03-31 12:39:00,
2013-03-31 07:44:00,34.2,29.5,29.79,West,270,5.8,9.4,83,0.00,CLR,CLR,0.00,WeatherDisplay:10.37,2013-03-31 12:44:00,
2013-03-31 07:49:00,34.3,29.7,29.79,WNW,292,6.7,12.7,83,0.00,CLR,CLR,0.00,WeatherDisplay:10.37,2013-03-31 12:49:00,
2013-03-31 07:55:00,34.3,29.7,29.79,NW,315,6.4,7.6,83,0.00,CLR,CLR,0.00,WeatherDisplay:10.37,2013-03-31 12:55:00,
2013-03-31 08:00:00,34.3,29.4,29.79,WNW,292,7.0,12.7,82,0.00,CLR,CLR,0.00,WeatherDisplay:10.37,2013-03-31 13:00:00,
2013-03-31 08:05:00,34.3,29.4,29.79,WSW,248,7.5,10.4,82,0.00,CLR,CLR,0.00,WeatherDisplay:10.37,2013-03-31 13:05:00,
2013-03-31 08:10:00,34.3,29.4,29.79,West,270,4.6,9.2,82,0.00,CLR,CLR,0.00,WeatherDisplay:10.37,2013-03-31 13:10:00,
2013-03-31 08:15:00,34.5,29.6,29.79,West,270,6.5,8.1,82,0.00,CLR,CLR,0.00,WeatherDisplay:10.37,2013-03-31 13:15:00,
2013-03-31 08:20:00,34.5,29.6,29.79,West,270,9.9,13.4,82,0.00,CLR,CLR,0.00,WeatherDisplay:10.37,2013-03-31 13:20:00,
2013-03-31 08:26:00,34.3,29.4,29.80,West,270,9.7,13.8,82,0.00,CLR,CLR,0.00,WeatherDisplay:10.37,2013-03-31 13:26:00,
2013-03-31 08:31:00,34.5,29.6,29.80,WSW,248,10.6,15.0,82,0.00,CLR,CLR,0.00,WeatherDisplay:10.37,2013-03-31 13:31:00,
2013-03-31 08:37:00,34.9,29.6,29.80,West,270,9.6,11.5,81,0.00,CLR,CLR,0.00,WeatherDisplay:10.37,2013-03-31 13:37:00,
2013-03-31 08:42:00,35.2,29.7,29.80,WNW,292,7.8,18.4,80,0.00,CLR,CLR,0.00,WeatherDisplay:10.37,2013-03-31 13:42:00,
2013-03-31 08:47:00,35.4,29.9,29.80,WSW,248,6.6,9.2,80,0.00,CLR,CLR,0.00,WeatherDisplay:10.37,2013-03-31 13:47:00,
2013-03-31 08:53:00,35.8,30.2,29.80,WNW,292,8.6,10.4,80,0.00,CLR,CLR,0.00,WeatherDisplay:10.37,2013-03-31 13:53:00,
2013-03-31 08:58:00,35.8,29.9,29.80,WNW,292,9.4,12.7,79,0.00,CLR,CLR,0.00,WeatherDisplay:10.37,2013-03-31 13:58:00,
2013-03-31 09:03:00,35.4,29.9,29.81,WSW,248,8.3,11.5,80,0.00,CLR,CLR,0.00,WeatherDisplay:10.37,2013-03-31 14:03:00,
2013-03-31 09:08:00,35.2,30.0,29.81,WNW,292,11.3,11.3,81,0.00,CLR,CLR,0.00,WeatherDisplay:10.37,2013-03-31 14:08:00,
2013-03-31 09:13:00,34.7,28.9,29.81,WNW,292,14.0,17.3,79,0.00,CLR,CLR,0.00,WeatherDisplay:10.37,2013-03-31 14:13:00,
2013-03-31 09:19:00,34.7,28.2,29.81,West,270,14.0,15.0,77,0.00,CLR,CLR,0.00,WeatherDisplay:10.37,2013-03-31 14:19:00,
2013-03-31 09:24:00,34.5,28.1,29.82,WNW,292,7.8,13.2,77,0.00,CLR,CLR,0.00,WeatherDisplay:10.37,2013-03-31 14:24:00,
2013-03-31 09:29:00,34.7,28.2,29.81,NW,315,12.7,19.6,77,0.00,CLR,CLR,0.00,WeatherDisplay:10.37,2013-03-31 14:29:00,
2013-03-31 09:34:00,34.7,27.6,29.82,WNW,292,12.9,17.3,75,0.00,CLR,CLR,0.00,WeatherDisplay:10.37,2013-03-31 14:34:00,
2013-03-31 09:39:00,34.9,27.8,29.82,WNW,292,12.4,17.3,75,0.00,CLR,CLR,0.00,WeatherDisplay:10.37,2013-03-31 14:39:00,
2013-03-31 09:44:00,35.2,28.1,29.82,WNW,292,12.5,17.3,75,0.00,CLR,CLR,0.00,WeatherDisplay:10.37,2013-03-31 14:44:00,
2013-03-31 09:50:00,35.2,27.8,29.82,WNW,292,13.5,17.3,74,0.00,CLR,CLR,0.00,WeatherDisplay:10.37,2013-03-31 14:50:00,
2013-03-31 09:55:00,35.4,28.0,29.83,WNW,292,11.1,19.6,74,0.00,CLR,CLR,0.00,WeatherDisplay:10.37,2013-03-31 14:55:00,
2013-03-31 10:00:00,35.4,27.3,29.83,West,270,12.1,27.6,72,0.00,CLR,CLR,0.00,WeatherDisplay:10.37,2013-03-31 15:00:00,
2013-03-31 10:05:00,35.8,27.6,29.83,WNW,292,12.3,15.0,72,0.00,CLR,CLR,0.00,WeatherDisplay:10.37,2013-03-31 15:05:00,
2013-03-31 10:11:00,36.0,26.8,29.84,NW,315,14.5,20.7,69,0.00,CLR,CLR,0.00,WeatherDisplay:10.37,2013-03-31 15:11:00,
2013-03-31 10:16:00,35.4,24.8,29.84,WNW,292,16.4,23.0,65,0.00,CLR,CLR,0.00,WeatherDisplay:10.37,2013-03-31 15:16:00,
2013-03-31 10:21:00,35.2,23.9,29.84,NNW,338,15.3,19.6,63,0.00,CLR,CLR,0.00,WeatherDisplay:10.37,2013-03-31 15:21:00,
2013-03-31 10:26:00,35.2,23.9,29.84,NW,315,18.3,26.5,63,0.00,CLR,CLR,0.00,WeatherDisplay:10.37,2013-03-31 15:26:00,
2013-03-31 10:32:00,34.9,22.4,29.85,WNW,292,19.3,24.2,60,0.00,CLR,CLR,0.00,WeatherDisplay:10.37,2013-03-31 15:32:00,
2013-03-31 10:37:00,34.9,22.0,29.85,NW,315,14.7,27.6,59,0.00,CLR,CLR,0.00,WeatherDisplay:10.37,2013-03-31 15:37:00,
2013-03-31 10:42:00,34.9,21.6,29.85,West,270,15.1,19.6,58,0.00,CLR,CLR,0.00,WeatherDisplay:10.37,2013-03-31 15:42:00,
2013-03-31 10:47:00,35.2,22.3,29.86,West,270,13.8,18.4,59,0.00,CLR,CLR,0.00,WeatherDisplay:10.37,2013-03-31 15:47:00,
2013-03-31 10:53:00,35.2,21.5,29.86,NW,315,15.9,22.1,57,0.00,CLR,CLR,0.00,WeatherDisplay:10.37,2013-03-31 15:53:00,
2013-03-31 10:58:00,34.9,21.2,29.86,WNW,292,17.3,20.7,57,0.00,CLR,CLR,0.00,WeatherDisplay:10.37,2013-03-31 15:58:00,
2013-03-31 11:03:00,34.9,21.6,29.86,NW,315,14.5,20.7,58,0.00,CLR,CLR,0.00,WeatherDisplay:10.37,2013-03-31 16:03:00,
2013-03-31 11:08:00,34.9,20.3,29.87,WNW,292,15.4,17.3,55,0.00,CLR,CLR,0.00,WeatherDisplay:10.37,2013-03-31 16:08:00,
2013-03-31 11:13:00,35.1,20.9,29.87,NNW,338,17.3,24.2,56,0.00,CLR,CLR,0.00,WeatherDisplay:10.37,2013-03-31 16:13:00,
2013-03-31 11:19:00,35.2,21.1,29.87,NW,315,16.6,24.2,56,0.00,CLR,CLR,0.00,WeatherDisplay:10.37,2013-03-31 16:19:00,
2013-03-31 11:24:00,35.4,21.3,29.87,NW,315,18.6,23.7,56,0.00,CLR,CLR,0.00,WeatherDisplay:10.37,2013-03-31 16:24:00,
2013-03-31 11:29:00,35.2,18.9,29.87,WNW,292,19.7,23.0,51,0.00,CLR,CLR,0.00,WeatherDisplay:10.37,2013-03-31 16:29:00,
2013-03-31 11:34:00,34.3,18.5,29.88,NW,315,14.6,19.6,52,0.00,CLR,CLR,0.00,WeatherDisplay:10.37,2013-03-31 16:34:00,
2013-03-31 11:39:00,34.5,19.6,29.88,West,270,10.7,17.3,54,0.00,CLR,CLR,0.00,WeatherDisplay:10.37,2013-03-31 16:39:00,
2013-03-31 11:45:00,34.5,20.0,29.88,WNW,292,15.8,19.6,55,0.00,CLR,CLR,0.00,WeatherDisplay:10.37,2013-03-31 16:45:00,
2013-03-31 11:50:00,34.7,19.7,29.88,NNW,338,19.5,20.7,54,0.00,CLR,CLR,0.00,WeatherDisplay:10.37,2013-03-31 16:50:00,
2013-03-31 11:55:00,34.9,19.9,29.88,West,270,14.8,14.8,54,0.00,CLR,CLR,0.00,WeatherDisplay:10.37,2013-03-31 16:55:00,
2013-03-31 12:00:00,34.3,17.6,29.89,NW,315,15.2,21.9,50,0.00,CLR,CLR,0.00,WeatherDisplay:10.37,2013-03-31 17:00:00,
2013-03-31 12:06:00,33.8,16.2,29.89,WNW,292,21.2,26.5,48,0.00,CLR,CLR,0.00,WeatherDisplay:10.37,2013-03-31 17:06:00,
2013-03-31 12:11:00,33.6,16.0,29.89,WNW,292,14.5,19.6,48,0.00,CLR,CLR,0.00,WeatherDisplay:10.37,2013-03-31 17:11:00,
2013-03-31 12:16:00,33.6,15.5,29.89,WNW,292,14.0,18.4,47,0.00,CLR,CLR,0.00,WeatherDisplay:10.37,2013-03-31 17:16:00,
2013-03-31 12:21:00,33.6,16.0,29.89,NW,315,15.1,20.7,48,0.00,CLR,CLR,0.00,WeatherDisplay:10.37,2013-03-31 17:21:00,
2013-03-31 12:26:00,33.6,15.0,29.89,WNW,292,15.6,23.0,46,0.00,CLR,CLR,0.00,WeatherDisplay:10.37,2013-03-31 17:26:00,
2013-03-31 12:31:00,33.3,14.7,29.89,WNW,292,19.9,23.0,46,0.00,CLR,CLR,0.00,WeatherDisplay:10.37,2013-03-31 17:31:00,
2013-03-31 12:37:00,33.3,15.7,29.89,NW,315,12.7,21.9,48,0.00,CLR,CLR,0.00,WeatherDisplay:10.37,2013-03-31 17:37:00,
2013-03-31 12:42:00,33.6,16.0,29.89,WNW,292,16.0,20.8,48,0.00,CLR,CLR,0.00,WeatherDisplay:10.37,2013-03-31 17:42:00,
2013-03-31 12:47:00,33.4,16.3,29.90,West,270,13.3,18.4,49,0.00,CLR,CLR,0.00,WeatherDisplay:10.37,2013-03-31 17:47:00,
2013-03-31 12:52:00,33.4,14.8,29.89,WNW,292,14.5,18.4,46,0.00,CLR,CLR,0.00,WeatherDisplay:10.37,2013-03-31 17:52:00,
2013-03-31 12:57:00,33.3,14.7,29.89,NW,315,15.7,21.9,46,0.00,CLR,CLR,0.00,WeatherDisplay:10.37,2013-03-31 17:57:00,
2013-03-31 13:03:00,33.4,14.8,29.90,NW,315,9.8,14.5,46,0.00,CLR,CLR,0.00,WeatherDisplay:10.37,2013-03-31 18:03:00,
2013-03-31 13:08:00,33.1,14.5,29.90,West,270,14.4,18.4,46,0.00,CLR,CLR,0.00,WeatherDisplay:10.37,2013-03-31 18:08:00,
2013-03-31 13:13:00,33.1,15.0,29.90,NW,315,13.0,18.4,47,0.00,CLR,CLR,0.00,WeatherDisplay:10.37,2013-03-31 18:13:00,
2013-03-31 13:18:00,33.1,15.0,29.90,NW,315,16.6,18.4,47,0.00,CLR,CLR,0.00,WeatherDisplay:10.37,2013-03-31 18:18:00,
2013-03-31 13:23:00,33.1,15.0,29.90,WNW,292,13.0,23.0,47,0.00,CLR,CLR,0.00,WeatherDisplay:10.37,2013-03-31 18:23:00,
2013-03-31 13:28:00,33.3,15.2,29.90,NW,315,11.3,15.0,47,0.00,CLR,CLR,0.00,WeatherDisplay:10.37,2013-03-31 18:28:00,
2013-03-31 13:34:00,33.3,14.7,29.90,NW,315,17.1,24.2,46,0.00,CLR,CLR,0.00,WeatherDisplay:10.37,2013-03-31 18:34:00,
2013-03-31 13:39:00,33.6,15.0,29.91,WNW,292,13.6,17.3,46,0.00,CLR,CLR,0.00,WeatherDisplay:10.37,2013-03-31 18:39:00,
2013-03-31 13:44:00,33.4,14.8,29.92,NW,315,16.1,19.6,46,0.00,CLR,CLR,0.00,WeatherDisplay:10.37,2013-03-31 18:44:00,
2013-03-31 13:49:00,33.6,15.5,29.92,WNW,292,12.1,17.3,47,0.00,CLR,CLR,0.00,WeatherDisplay:10.37,2013-03-31 18:49:00,
2013-03-31 13:55:00,33.6,15.0,29.92,WNW,292,11.6,22.6,46,0.00,CLR,CLR,0.00,WeatherDisplay:10.37,2013-03-31 18:55:00,
2013-03-31 14:00:00,33.4,15.3,29.92,West,270,13.3,17.3,47,0.00,CLR,CLR,0.00,WeatherDisplay:10.37,2013-03-31 19:00:00,
2013-03-31 14:05:00,33.4,14.8,29.92,WNW,292,19.2,23.0,46,0.00,CLR,CLR,0.00,WeatherDisplay:10.37,2013-03-31 19:05:00,
2013-03-31 14:10:00,33.6,16.0,29.92,WNW,292,13.6,16.1,48,0.00,CLR,CLR,0.00,WeatherDisplay:10.37,2013-03-31 19:10:00,
2013-03-31 14:16:00,33.6,15.0,29.92,West,270,11.0,15.0,46,0.00,CLR,CLR,0.00,WeatherDisplay:10.37,2013-03-31 19:16:00,
2013-03-31 14:21:00,33.6,15.0,29.92,WNW,292,15.3,17.3,46,0.00,CLR,CLR,0.00,WeatherDisplay:10.37,2013-03-31 19:21:00,
2013-03-31 14:27:00,33.6,15.0,29.92,WNW,292,13.4,18.4,46,0.00,CLR,CLR,0.00,WeatherDisplay:10.37,2013-03-31 19:27:00,
2013-03-31 14:32:00,34.0,15.3,29.92,NNW,338,11.7,13.8,46,0.00,CLR,CLR,0.00,WeatherDisplay:10.37,2013-03-31 19:32:00,
2013-03-31 14:37:00,34.0,15.3,29.92,WNW,292,13.0,16.1,46,0.00,CLR,CLR,0.00,WeatherDisplay:10.37,2013-03-31 19:37:00,
2013-03-31 14:42:00,34.0,14.8,29.92,West,270,11.4,17.3,45,0.00,CLR,CLR,0.00,WeatherDisplay:10.37,2013-03-31 19:42:00,
2013-03-31 14:47:00,33.8,16.2,29.93,WNW,292,15.8,20.7,48,0.00,CLR,CLR,0.00,WeatherDisplay:10.37,2013-03-31 19:47:00,
2013-03-31 14:52:00,33.6,16.0,29.93,WNW,292,9.2,13.8,48,0.00,CLR,CLR,0.00,WeatherDisplay:10.37,2013-03-31 19:52:00,
2013-03-31 14:57:00,33.6,16.5,29.93,West,270,16.4,20.7,49,0.00,CLR,CLR,0.00,WeatherDisplay:10.37,2013-03-31 19:57:00,
2013-03-31 15:02:00,33.6,16.9,29.93,NW,315,11.5,13.8,50,0.00,CLR,CLR,0.00,WeatherDisplay:10.37,2013-03-31 20:02:00,
2013-03-31 15:07:00,33.6,16.9,29.93,West,270,9.6,14.3,50,0.00,CLR,CLR,0.00,WeatherDisplay:10.37,2013-03-31 20:07:00,
2013-03-31 15:12:00,34.0,16.8,29.93,WSW,248,15.7,20.7,49,0.00,CLR,CLR,0.00,WeatherDisplay:10.37,2013-03-31 20:12:00,
2013-03-31 15:17:00,34.0,16.8,29.93,West,270,13.0,17.3,49,0.00,CLR,CLR,0.00,WeatherDisplay:10.37,2013-03-31 20:17:00,
2013-03-31 15:23:00,33.6,16.9,29.93,West,270,11.3,12.7,50,0.00,CLR,CLR,0.00,WeatherDisplay:10.37,2013-03-31 20:23:00,
2013-03-31 15:28:00,33.6,16.9,29.93,WNW,292,11.3,18.4,50,0.00,CLR,CLR,0.00,WeatherDisplay:10.37,2013-03-31 20:28:00,
2013-03-31 15:33:00,33.4,16.3,29.94,West,270,12.4,16.1,49,0.00,CLR,CLR,0.00,WeatherDisplay:10.37,2013-03-31 20:33:00,
2013-03-31 15:38:00,33.3,16.6,29.94,West,270,10.9,19.6,50,0.00,CLR,CLR,0.00,WeatherDisplay:10.37,2013-03-31 20:38:00,
2013-03-31 15:43:00,33.3,17.5,29.94,West,270,10.6,11.5,52,0.00,CLR,CLR,0.00,WeatherDisplay:10.37,2013-03-31 20:43:00,
2013-03-31 15:48:00,33.4,16.3,29.94,WNW,292,8.6,15.6,49,0.00,CLR,CLR,0.00,WeatherDisplay:10.37,2013-03-31 20:48:00,
2013-03-31 15:54:00,33.4,16.8,29.94,WNW,292,15.0,15.0,50,0.00,CLR,CLR,0.00,WeatherDisplay:10.37,2013-03-31 20:54:00,
2013-03-31 15:59:00,33.4,16.8,29.94,NW,315,12.1,18.4,50,0.00,CLR,CLR,0.00,WeatherDisplay:10.37,2013-03-31 20:59:00,
2013-03-31 16:04:00,33.1,16.0,29.94,WNW,292,13.7,19.6,49,0.00,CLR,CLR,0.00,WeatherDisplay:10.37,2013-03-31 21:04:00,
2013-03-31 16:09:00,33.1,16.9,29.94,WNW,292,10.9,15.0,51,0.00,CLR,CLR,0.00,WeatherDisplay:10.37,2013-03-31 21:09:00,
2013-03-31 16:14:00,33.3,16.1,29.94,NW,315,11.9,15.0,49,0.00,CLR,CLR,0.00,WeatherDisplay:10.37,2013-03-31 21:14:00,
2013-03-31 16:19:00,33.1,16.0,29.94,West,270,13.5,16.1,49,0.00,CLR,CLR,0.00,WeatherDisplay:10.37,2013-03-31 21:19:00,
2013-03-31 16:24:00,32.9,15.8,29.95,WNW,292,14.0,16.1,49,0.00,CLR,CLR,0.00,WeatherDisplay:10.37,2013-03-31 21:24:00,
2013-03-31 16:29:00,33.1,16.0,29.95,West,270,14.4,16.1,49,0.00,CLR,CLR,0.00,WeatherDisplay:10.37,2013-03-31 21:29:00,
2013-03-31 16:35:00,32.9,16.3,29.95,West,270,11.1,17.3,50,0.00,CLR,CLR,0.00,WeatherDisplay:10.37,2013-03-31 21:35:00,
2013-03-31 16:40:00,33.1,16.0,29.94,West,270,17.2,19.6,49,0.00,CLR,CLR,0.00,WeatherDisplay:10.37,2013-03-31 21:40:00,
2013-03-31 16:45:00,32.9,16.3,29.94,NW,315,13.0,20.7,50,0.00,CLR,CLR,0.00,WeatherDisplay:10.37,2013-03-31 21:45:00,
2013-03-31 16:50:00,33.3,17.1,29.94,West,270,8.8,13.8,51,0.00,CLR,CLR,0.00,WeatherDisplay:10.37,2013-03-31 21:50:00,
2013-03-31 16:55:00,33.4,16.8,29.95,West,270,11.7,13.8,50,0.00,CLR,CLR,0.00,WeatherDisplay:10.37,2013-03-31 21:55:00,
2013-03-31 17:01:00,33.3,17.1,29.95,NW,315,12.3,15.0,51,0.00,CLR,CLR,0.00,WeatherDisplay:10.37,2013-03-31 22:01:00,
2013-03-31 17:06:00,33.4,17.7,29.95,West,270,10.0,15.0,52,0.00,CLR,CLR,0.00,WeatherDisplay:10.37,2013-03-31 22:06:00,
2013-03-31 17:11:00,33.4,17.7,29.95,West,270,10.0,12.7,52,0.00,CLR,CLR,0.00,WeatherDisplay:10.37,2013-03-31 22:11:00,
2013-03-31 17:17:00,33.4,17.7,29.95,West,270,9.6,12.7,52,0.00,CLR,CLR,0.00,WeatherDisplay:10.37,2013-03-31 22:17:00,
2013-03-31 17:22:00,33.1,16.4,29.95,West,270,13.9,17.3,50,0.00,CLR,CLR,0.00,WeatherDisplay:10.37,2013-03-31 22:22:00,
2013-03-31 17:27:00,32.9,16.3,29.95,West,270,12.0,16.1,50,0.00,CLR,CLR,0.00,WeatherDisplay:10.37,2013-03-31 22:27:00,
2013-03-31 17:32:00,32.5,16.4,29.95,West,270,15.5,19.6,51,0.00,CLR,CLR,0.00,WeatherDisplay:10.37,2013-03-31 22:32:00,
2013-03-31 17:37:00,32.5,16.8,29.96,WNW,292,9.9,17.3,52,0.00,CLR,CLR,0.00,WeatherDisplay:10.37,2013-03-31 22:37:00,
2013-03-31 17:43:00,32.5,16.4,29.96,NW,315,12.0,15.0,51,0.00,CLR,CLR,0.00,WeatherDisplay:10.37,2013-03-31 22:43:00,
2013-03-31 17:48:00,32.4,16.7,29.96,West,270,16.0,21.9,52,0.00,CLR,CLR,0.00,WeatherDisplay:10.37,2013-03-31 22:48:00,
2013-03-31 17:53:00,32.2,16.1,29.96,West,270,16.6,20.7,51,0.00,CLR,CLR,0.00,WeatherDisplay:10.37,2013-03-31 22:53:00,
2013-03-31 17:58:00,32.2,16.5,29.96,WNW,292,14.8,20.7,52,0.00,CLR,CLR,0.00,WeatherDisplay:10.37,2013-03-31 22:58:00,
2013-03-31 18:04:00,32.2,16.5,29.97,WNW,292,10.7,19.6,52,0.00,CLR,CLR,0.00,WeatherDisplay:10.37,2013-03-31 23:04:00,
2013-03-31 18:09:00,31.8,16.2,29.97,NW,315,10.8,15.4,52,0.00,CLR,CLR,0.00,WeatherDisplay:10.37,2013-03-31 23:09:00,
2013-03-31 18:14:00,31.8,16.2,29.97,WNW,292,14.9,14.9,52,0.00,CLR,CLR,0.00,WeatherDisplay:10.37,2013-03-31 23:14:00,
2013-03-31 18:19:00,31.6,16.0,29.97,WNW,292,13.5,19.6,52,0.00,CLR,CLR,0.00,WeatherDisplay:10.37,2013-03-31 23:19:00,
2013-03-31 18:24:00,31.3,15.7,29.98,NW,315,11.2,18.4,52,0.00,CLR,CLR,0.00,WeatherDisplay:10.37,2013-03-31 23:24:00,
2013-03-31 18:30:00,31.5,16.3,29.98,WNW,292,11.1,16.1,53,0.00,CLR,CLR,0.00,WeatherDisplay:10.37,2013-03-31 23:30:00,
2013-03-31 18:35:00,31.3,15.7,29.99,WNW,292,11.6,18.4,52,0.00,CLR,CLR,0.00,WeatherDisplay:10.37,2013-03-31 23:35:00,
2013-03-31 18:40:00,30.9,15.3,29.99,West,270,9.4,15.0,52,0.00,CLR,CLR,0.00,WeatherDisplay:10.37,2013-03-31 23:40:00,
2013-03-31 18:45:00,30.9,16.2,29.99,WNW,292,10.4,13.8,54,0.00,CLR,CLR,0.00,WeatherDisplay:10.37,2013-03-31 23:45:00,
2013-03-31 18:50:00,30.9,16.6,29.99,WNW,292,10.8,16.1,55,0.00,CLR,CLR,0.00,WeatherDisplay:10.37,2013-03-31 23:50:00,
2013-03-31 18:56:00,30.6,15.9,29.99,West,270,11.7,13.8,54,0.00,CLR,CLR,0.00,WeatherDisplay:10.37,2013-03-31 23:56:00,
2013-03-31 19:01:00,30.4,15.7,30.00,West,270,13.0,20.7,54,0.00,CLR,CLR,0.00,WeatherDisplay:10.37,2013-04-01 00:01:00,
2013-03-31 19:06:00,30.0,15.8,30.00,West,270,11.8,15.0,55,0.00,CLR,CLR,0.00,WeatherDisplay:10.37,2013-04-01 00:06:00,
2013-03-31 19:11:00,29.3,15.1,30.00,West,270,15.3,17.3,55,0.00,CLR,CLR,0.00,WeatherDisplay:10.37,2013-04-01 00:11:00,
2013-03-31 19:16:00,28.8,14.6,30.00,WNW,292,15.5,18.4,55,0.00,CLR,CLR,0.00,WeatherDisplay:10.37,2013-04-01 00:16:00,
2013-03-31 19:21:00,28.2,14.5,30.00,WNW,292,11.1,13.8,56,0.00,CLR,CLR,0.00,WeatherDisplay:10.37,2013-04-01 00:21:00,
2013-03-31 19:27:00,27.1,14.3,30.00,West,270,13.0,16.1,58,0.00,CLR,CLR,0.00,WeatherDisplay:10.37,2013-04-01 00:27:00,
2013-03-31 19:32:00,26.6,14.2,30.01,West,270,8.6,12.7,59,0.00,CLR,CLR,0.00,WeatherDisplay:10.37,2013-04-01 00:32:00,
2013-03-31 19:37:00,26.2,14.2,30.01,WNW,292,11.5,12.7,60,0.00,CLR,CLR,0.00,WeatherDisplay:10.37,2013-04-01 00:37:00,
2013-03-31 19:42:00,25.7,14.1,30.01,NW,315,11.1,18.4,61,0.00,CLR,CLR,0.00,WeatherDisplay:10.37,2013-04-01 00:42:00,
2013-03-31 19:47:00,25.5,14.3,30.02,NW,315,9.1,10.5,62,0.00,CLR,CLR,0.00,WeatherDisplay:10.37,2013-04-01 00:47:00,
2013-03-31 19:53:00,25.0,13.8,30.02,WNW,292,14.7,18.4,62,0.00,CLR,CLR,0.00,WeatherDisplay:10.37,2013-04-01 00:53:00,
2013-03-31 19:58:00,24.6,13.4,30.02,West,270,11.3,12.7,62,0.00,CLR,CLR,0.00,WeatherDisplay:10.37,2013-04-01 00:58:00,
2013-03-31 20:03:00,24.6,13.8,30.02,WNW,292,10.8,11.8,63,0.00,CLR,CLR,0.00,WeatherDisplay:10.37,2013-04-01 01:03:00,
2013-03-31 20:08:00,24.4,13.6,30.02,NW,315,13.0,16.1,63,0.00,CLR,CLR,0.00,WeatherDisplay:10.37,2013-04-01 01:08:00,
2013-03-31 20:13:00,24.4,13.6,30.03,NW,315,9.7,12.7,63,0.00,CLR,CLR,0.00,WeatherDisplay:10.37,2013-04-01 01:13:00,
2013-03-31 20:18:00,24.1,13.3,30.02,West,270,11.3,12.7,63,0.00,CLR,CLR,0.00,WeatherDisplay:10.37,2013-04-01 01:18:00,
2013-03-31 20:24:00,23.9,13.8,30.03,West,270,8.7,12.1,65,0.00,CLR,CLR,0.00,WeatherDisplay:10.37,2013-04-01 01:24:00,
2013-03-31 20:29:00,23.7,13.7,30.03,WNW,292,12.8,12.8,65,0.00,CLR,CLR,0.00,WeatherDisplay:10.37,2013-04-01 01:29:00,
2013-03-31 20:34:00,23.5,13.5,30.04,NW,315,7.7,13.8,65,0.00,CLR,CLR,0.00,WeatherDisplay:10.37,2013-04-01 01:34:00,
2013-03-31 20:39:00,23.5,13.5,30.04,WNW,292,8.9,10.4,65,0.00,CLR,CLR,0.00,WeatherDisplay:10.37,2013-04-01 01:39:00,
2013-03-31 20:44:00,23.4,13.3,30.04,WNW,292,13.2,16.1,65,0.00,CLR,CLR,0.00,WeatherDisplay:10.37,2013-04-01 01:44:00,
2013-03-31 20:50:00,23.2,13.1,30.05,WSW,248,10.5,11.5,65,0.00,CLR,CLR,0.00,WeatherDisplay:10.37,2013-04-01 01:50:00,
2013-03-31 20:55:00,23.0,13.0,30.05,WNW,292,8.1,12.7,65,0.00,CLR,CLR,0.00,WeatherDisplay:10.37,2013-04-01 01:55:00,
2013-03-31 21:00:00,22.8,13.2,30.05,West,270,11.2,16.1,66,0.00,CLR,CLR,0.00,WeatherDisplay:10.37,2013-04-01 02:00:00,
2013-03-31 21:05:00,22.8,12.8,30.05,WNW,292,9.3,12.7,65,0.00,CLR,CLR,0.00,WeatherDisplay:10.37,2013-04-01 02:05:00,
2013-03-31 21:10:00,22.6,12.6,30.05,WNW,292,8.1,12.7,65,0.00,CLR,CLR,0.00,WeatherDisplay:10.37,2013-04-01 02:10:00,
2013-03-31 21:15:00,22.5,12.8,30.06,WNW,292,10.6,17.3,66,0.00,CLR,CLR,0.00,WeatherDisplay:10.37,2013-04-01 02:15:00,
2013-03-31 21:20:00,22.3,12.6,30.06,WNW,292,14.8,18.1,66,0.00,CLR,CLR,0.00,WeatherDisplay:10.37,2013-04-01 02:20:00,
2013-03-31 21:26:00,21.9,12.3,30.06,WNW,292,9.8,16.1,66,0.00,CLR,CLR,0.00,WeatherDisplay:10.37,2013-04-01 02:26:00,
2013-03-31 21:31:00,21.9,12.3,30.07,WNW,292,8.4,12.7,66,0.00,CLR,CLR,0.00,WeatherDisplay:10.37,2013-04-01 02:31:00,
2013-03-31 21:36:00,21.7,12.1,30.07,NW,315,10.1,19.7,66,0.00,CLR,CLR,0.00,WeatherDisplay:10.37,2013-04-01 02:36:00,
2013-03-31 21:41:00,21.6,12.3,30.07,NW,315,11.7,17.3,67,0.00,CLR,CLR,0.00,WeatherDisplay:10.37,2013-04-01 02:41:00,
2013-03-31 21:47:00,21.4,12.1,30.07,WNW,292,15.8,17.3,67,0.00,CLR,CLR,0.00,WeatherDisplay:10.37,2013-04-01 02:47:00,
2013-03-31 21:52:00,21.4,11.8,30.08,NW,315,11.0,16.1,66,0.00,CLR,CLR,0.00,WeatherDisplay:10.37,2013-04-01 02:52:00,
2013-03-31 21:57:00,21.4,12.1,30.08,WNW,292,7.4,11.6,67,0.00,CLR,CLR,0.00,WeatherDisplay:10.37,2013-04-01 02:57:00,
2013-03-31 22:02:00,21.0,11.8,30.08,WNW,292,10.5,11.5,67,0.00,CLR,CLR,0.00,WeatherDisplay:10.37,2013-04-01 03:02:00,
2013-03-31 22:08:00,20.8,11.9,30.08,WNW,292,8.4,10.4,68,0.00,CLR,CLR,0.00,WeatherDisplay:10.37,2013-04-01 03:08:00,
2013-03-31 22:13:00,20.8,11.9,30.09,West,270,10.4,11.8,68,0.00,CLR,CLR,0.00,WeatherDisplay:10.37,2013-04-01 03:13:00,
2013-03-31 22:19:00,20.7,11.8,30.09,WNW,292,8.1,12.7,68,0.00,CLR,CLR,0.00,WeatherDisplay:10.37,2013-04-01 03:19:00,
2013-03-31 22:24:00,20.5,11.6,30.09,West,270,10.6,11.5,68,0.00,CLR,CLR,0.00,WeatherDisplay:10.37,2013-04-01 03:24:00,
2013-03-31 22:29:00,20.5,11.6,30.10,NW,315,10.1,12.7,68,0.00,CLR,CLR,0.00,WeatherDisplay:10.37,2013-04-01 03:29:00,
2013-03-31 22:35:00,20.3,11.7,30.10,West,270,6.4,11.5,69,0.00,CLR,CLR,0.00,WeatherDisplay:10.37,2013-04-01 03:35:00,
2013-03-31 22:40:00,20.1,11.6,30.09,WNW,292,10.7,13.8,69,0.00,CLR,CLR,0.00,WeatherDisplay:10.37,2013-04-01 03:40:00,
2013-03-31 22:45:00,20.1,11.6,30.10,WNW,292,12.8,13.8,69,0.00,CLR,CLR,0.00,WeatherDisplay:10.37,2013-04-01 03:45:00,
2013-03-31 22:50:00,19.9,11.4,30.10,West,270,10.5,11.5,69,0.00,CLR,CLR,0.00,WeatherDisplay:10.37,2013-04-01 03:50:00,
2013-03-31 22:55:00,19.9,11.4,30.10,WNW,292,9.0,12.7,69,0.00,CLR,CLR,0.00,WeatherDisplay:10.37,2013-04-01 03:55:00,
2013-03-31 23:00:00,19.8,11.2,30.10,WNW,292,10.9,15.0,69,0.00,CLR,CLR,0.00,WeatherDisplay:10.37,2013-04-01 04:00:00,
2013-03-31 23:01:00,19.8,11.2,30.10,NW,315,7.4,10.4,69,0.00,CLR,CLR,0.00,WeatherDisplay:10.37,2013-04-01 04:01:00,
2013-03-31 23:06:00,19.6,11.1,30.10,West,270,11.8,16.1,69,0.00,CLR,CLR,0.00,WeatherDisplay:10.37,2013-04-01 04:06:00,
2013-03-31 23:12:00,19.6,11.4,30.11,NW,315,10.2,12.7,70,0.00,CLR,CLR,0.00,WeatherDisplay:10.37,2013-04-01 04:12:00,
2013-03-31 23:17:00,19.4,11.2,30.11,WNW,292,7.7,12.7,70,0.00,CLR,CLR,0.00,WeatherDisplay:10.37,2013-04-01 04:17:00,
2013-03-31 23:22:00,19.2,11.0,30.11,West,270,6.5,8.1,70,0.00,CLR,CLR,0.00,WeatherDisplay:10.37,2013-04-01 04:22:00,
2013-03-31 23:27:00,19.2,11.0,30.11,WSW,248,8.4,11.5,70,0.00,CLR,CLR,0.00,WeatherDisplay:10.37,2013-04-01 04:27:00,
2013-03-31 23:33:00,19.2,11.0,30.11,WNW,292,7.9,10.4,70,0.00,CLR,CLR,0.00,WeatherDisplay:10.37,2013-04-01 04:33:00,
2013-03-31 23:38:00,19.0,10.9,30.11,WNW,292,4.7,8.1,70,0.00,CLR,CLR,0.00,WeatherDisplay:10.37,2013-04-01 04:38:00,
2013-03-31 23:43:00,18.9,10.7,30.11,NW,315,11.3,12.7,70,0.00,CLR,CLR,0.00,WeatherDisplay:10.37,2013-04-01 04:43:00,
2013-03-31 23:48:00,18.7,10.5,30.12,West,270,9.2,11.5,70,0.00,CLR,CLR,0.00,WeatherDisplay:10.37,2013-04-01 04:48:00,
2013-03-31 23:53:00,18.7,10.8,30.12,NW,315,9.2,10.4,71,0.00,CLR,CLR,0.00,WeatherDisplay:10.37,2013-04-01 04:53:00,
2013-03-31 23:58:00,18.5,10.7,30.12,West,270,8.0,11.5,71,0.00,CLR,CLR,0.00,WeatherDisplay:10.37,2013-04-01 04:58:00,